Time;durP1;ratioP1;P1;durP2;ratioP2;P2;SDS_P1;SDS_P2;PMS_P1;PMS_P2;Temp;Humidity;BMP_temperature;BMP_pressure;BME280_temperature;BME280_humidity;BME280_pressure;Samples;Min_cycle;Max_cycle;Signal;HPM_P1;HPM_P2
2022/10/27 00:00:46;;;;;;;0.77;0.73;;;;;;;11.89;100.00;101012.56;5029691;28;20880;-53
2022/10/27 00:03:14;;;;;;;1.00;0.83;;;;;;;11.92;100.00;101016.03;5029836;28;20482;-55
2022/10/27 00:05:42;;;;;;;1.77;0.60;;;;;;;11.91;100.00;101018.72;5029681;28;20491;-55
2022/10/27 00:08:16;;;;;;;1.23;1.23;;;;;;;11.90;100.00;101024.97;5029419;28;20887;-55
2022/10/27 00:10:43;;;;;;;0.60;0.50;;;;;;;11.85;100.00;101023.28;5028948;28;20498;-55
2022/10/27 00:13:12;;;;;;;0.77;0.73;;;;;;;11.86;100.00;101019.72;5028162;28;20578;-53
2022/10/27 00:15:38;;;;;;;0.60;0.60;;;;;;;11.89;100.00;101021.44;5029599;28;20476;-54
2022/10/27 00:18:10;;;;;;;0.80;0.80;;;;;;;11.79;100.00;101019.91;5029375;28;20517;-54
2022/10/27 00:20:36;;;;;;;3.03;2.23;;;;;;;11.55;100.00;101016.81;5029197;28;20513;-53
2022/10/27 00:23:02;;;;;;;0.90;0.90;;;;;;;11.44;100.00;101015.28;5029537;28;20460;-54
2022/10/27 00:25:29;;;;;;;1.10;1.00;;;;;;;11.39;100.00;101020.69;5022870;28;20452;-53
2022/10/27 00:27:56;;;;;;;0.63;0.63;;;;;;;11.32;100.00;101024.38;5021886;28;20527;-53
2022/10/27 00:30:22;;;;;;;0.93;0.93;;;;;;;11.34;100.00;101021.69;5029312;28;20509;-54
2022/10/27 00:32:48;;;;;;;1.07;0.40;;;;;;;11.34;100.00;101022.56;5019080;28;20982;-54
2022/10/27 00:35:15;;;;;;;0.70;0.60;;;;;;;11.33;100.00;101022.59;5028562;28;20510;-55
2022/10/27 00:37:42;;;;;;;1.00;0.87;;;;;;;11.32;100.00;101023.50;5029049;28;20501;-53
2022/10/27 00:40:09;;;;;;;0.53;0.40;;;;;;;11.37;100.00;101032.25;5029116;28;20452;-54
2022/10/27 00:42:35;;;;;;;3.47;0.97;;;;;;;11.40;100.00;101022.44;5021934;28;20884;-54
2022/10/27 00:45:02;;;;;;;0.97;0.87;;;;;;;11.34;100.00;101016.34;5028797;28;20506;-55
2022/10/27 00:47:35;;;;;;;1.67;1.57;;;;;;;11.31;100.00;101013.75;5028845;28;20495;-54
2022/10/27 00:50:07;;;;;;;1.00;0.60;;;;;;;11.25;100.00;101012.13;5029081;28;20455;-54
2022/10/27 00:52:49;;;;;;;0.50;0.50;;;;;;;11.23;100.00;101019.22;5028865;28;20455;-54
2022/10/27 00:55:42;;;;;;;4.57;2.20;;;;;;;11.05;100.00;101020.47;5029348;28;20451;-55
2022/10/27 00:58:13;;;;;;;1.33;0.70;;;;;;;11.21;100.00;101026.38;5012670;28;20463;-54
2022/10/27 01:00:41;;;;;;;1.20;1.10;;;;;;;11.36;100.00;101030.50;5028951;28;20513;-53
2022/10/27 01:03:10;;;;;;;2.20;0.90;;;;;;;11.11;100.00;101040.78;5028426;28;20893;-55
2022/10/27 01:05:39;;;;;;;1.07;0.97;;;;;;;11.05;100.00;101032.88;5028510;28;20514;-55
2022/10/27 01:08:06;;;;;;;1.33;1.23;;;;;;;10.93;100.00;101048.16;5028981;28;20505;-54
2022/10/27 01:10:33;;;;;;;4.87;1.33;;;;;;;10.89;100.00;101048.25;5027306;28;20513;-55
2022/10/27 01:13:00;;;;;;;0.80;0.63;;;;;;;11.01;100.00;101050.69;5028492;28;20873;-55
2022/10/27 01:15:39;;;;;;;4.03;0.90;;;;;;;10.86;100.00;101053.63;5028639;28;20448;-54
2022/10/27 01:18:20;;;;;;;1.70;1.20;;;;;;;10.78;100.00;101044.91;5029200;28;20812;-55
2022/10/27 01:21:14;;;;;;;0.90;0.70;;;;;;;10.87;100.00;101055.38;5028913;28;20447;-53
2022/10/27 01:24:02;;;;;;;2.43;1.03;;;;;;;10.66;100.00;101044.19;5028585;28;20468;-55
2022/10/27 01:26:42;;;;;;;5.07;0.90;;;;;;;10.59;100.00;101052.31;5014059;28;20484;-54
2022/10/27 01:29:47;;;;;;;1.10;1.00;;;;;;;10.71;100.00;101053.91;5006042;28;20818;-55
2022/10/27 01:32:23;;;;;;;1.00;0.67;;;;;;;10.63;100.00;101040.72;4998604;28;20890;-56
2022/10/27 01:35:00;;;;;;;2.70;0.97;;;;;;;10.59;100.00;101047.00;5023941;28;20479;-53
2022/10/27 01:37:42;;;;;;;0.77;0.77;;;;;;;10.59;100.00;101041.69;5028442;28;20463;-53
2022/10/27 01:40:23;;;;;;;1.23;1.07;;;;;;;10.49;100.00;101034.75;5028642;28;20502;-55
2022/10/27 01:43:16;;;;;;;1.50;0.53;;;;;;;10.54;100.00;101035.53;5016279;28;20944;-53
2022/10/27 01:45:43;;;;;;;0.60;0.60;;;;;;;10.46;100.00;101048.09;5028574;28;20502;-53
2022/10/27 01:48:11;;;;;;;0.80;0.80;;;;;;;10.38;100.00;101038.44;5026719;28;20971;-53
2022/10/27 01:50:40;;;;;;;1.20;1.10;;;;;;;10.40;100.00;101051.72;5028954;28;20801;-54
2022/10/27 01:53:31;;;;;;;3.47;0.70;;;;;;;10.56;100.00;101041.75;5004797;28;20484;-54
2022/10/27 01:56:03;;;;;;;9.40;1.10;;;;;;;10.51;100.00;101046.22;5028166;28;20928;-54
2022/10/27 01:58:43;;;;;;;0.50;0.37;;;;;;;10.40;100.00;101046.41;5030208;28;20479;-54
2022/10/27 02:01:13;;;;;;;1.23;0.80;;;;;;;10.33;100.00;101042.09;5031926;28;20525;-55
2022/10/27 02:03:50;;;;;;;0.87;0.80;;;;;;;10.36;100.00;101039.38;5031738;28;20525;-53
2022/10/27 02:06:37;;;;;;;0.80;0.70;;;;;;;10.23;100.00;101046.66;5031632;28;21081;-55
2022/10/27 02:09:15;;;;;;;0.60;0.60;;;;;;;10.22;100.00;101041.38;5031501;28;20873;-54
2022/10/27 02:11:47;;;;;;;10.40;1.13;;;;;;;10.19;100.00;101036.09;5031011;28;20760;-55
2022/10/27 02:14:14;;;;;;;0.60;0.57;;;;;;;10.10;100.00;101043.28;5031604;28;20483;-55
2022/10/27 02:16:46;;;;;;;1.50;1.27;;;;;;;10.22;100.00;101044.03;5032004;28;21007;-54
2022/10/27 02:19:19;;;;;;;0.73;0.73;;;;;;;10.19;100.00;101041.41;5031234;28;20451;-54
2022/10/27 02:21:48;;;;;;;0.70;0.60;;;;;;;10.23;100.00;101051.09;5031629;28;20486;-55
2022/10/27 02:24:15;;;;;;;1.13;0.93;;;;;;;10.16;100.00;101049.41;5031541;28;20479;-54
2022/10/27 02:26:47;;;;;;;1.30;1.20;;;;;;;10.34;100.00;101051.81;5017997;28;20496;-54
2022/10/27 02:29:32;;;;;;;1.00;1.00;;;;;;;10.35;100.00;101049.13;5031735;28;20486;-55
2022/10/27 02:32:02;;;;;;;1.30;1.20;;;;;;;10.29;100.00;101056.34;5028043;28;20456;-55
2022/10/27 02:34:31;;;;;;;2.93;2.73;;;;;;;10.44;100.00;101053.44;5023895;28;20468;-53
2022/10/27 02:36:58;;;;;;;0.80;0.80;;;;;;;10.57;100.00;101051.47;5030928;28;20954;-54
2022/10/27 02:39:25;;;;;;;1.10;1.00;;;;;;;10.51;100.00;101059.53;5031272;28;20452;-55
2022/10/27 02:41:51;;;;;;;2.60;1.07;;;;;;;10.49;100.00;101053.38;5022906;28;20459;-55
2022/10/27 02:44:18;;;;;;;3.40;3.03;;;;;;;10.53;100.00;101058.59;5030891;28;20476;-54
2022/10/27 02:46:44;;;;;;;1.40;1.30;;;;;;;10.59;100.00;101053.19;5030916;28;20495;-55
2022/10/27 02:49:11;;;;;;;23.20;1.57;;;;;;;10.55;100.00;101043.53;5030944;28;20458;-54
2022/10/27 02:51:37;;;;;;;1.17;1.07;;;;;;;10.41;100.00;101047.28;5031183;28;20475;-55
2022/10/27 02:54:03;;;;;;;1.13;1.10;;;;;;;10.45;100.00;101043.69;5030907;28;20475;-55
2022/10/27 02:56:30;;;;;;;2.73;2.53;;;;;;;10.57;100.00;101052.34;5030846;28;20459;-56
2022/10/27 02:58:56;;;;;;;2.83;1.10;;;;;;;10.51;100.00;101031.16;5029366;28;20875;-55
2022/10/27 03:01:22;;;;;;;1.17;1.07;;;;;;;10.91;100.00;101038.47;5030876;28;20518;-54
2022/10/27 03:03:49;;;;;;;1.80;1.70;;;;;;;10.70;100.00;101045.06;5030406;28;20491;-54
2022/10/27 03:06:15;;;;;;;7.73;1.80;;;;;;;10.87;100.00;101047.41;5004825;28;20967;-55
2022/10/27 03:08:42;;;;;;;1.07;1.00;;;;;;;11.02;100.00;101047.13;5029810;28;20459;-55
2022/10/27 03:11:08;;;;;;;1.83;1.10;;;;;;;10.72;100.00;101056.53;5030062;28;20518;-55
2022/10/27 03:13:34;;;;;;;2.47;1.43;;;;;;;10.79;100.00;101049.31;5030979;28;20545;-52
2022/10/27 03:16:01;;;;;;;1.00;1.00;;;;;;;10.74;100.00;101044.09;5030648;28;20448;-51
2022/10/27 03:18:28;;;;;;;0.80;0.80;;;;;;;10.83;100.00;101045.72;5030262;28;20452;-51
2022/10/27 03:20:55;;;;;;;0.50;0.50;;;;;;;10.70;100.00;101050.38;5030392;28;20482;-50
2022/10/27 03:23:21;;;;;;;0.80;0.80;;;;;;;10.77;100.00;101051.13;5030462;28;20476;-51
2022/10/27 03:25:47;;;;;;;2.00;0.63;;;;;;;10.72;100.00;101048.56;5022639;28;20463;-53
2022/10/27 03:28:14;;;;;;;0.60;0.60;;;;;;;10.48;100.00;101046.28;5024462;28;20933;-50
2022/10/27 03:30:41;;;;;;;0.60;0.57;;;;;;;10.31;100.00;101043.91;5030494;28;20451;-51
2022/10/27 03:33:07;;;;;;;0.50;0.50;;;;;;;10.28;100.00;101041.28;5018125;28;20523;-52
2022/10/27 03:35:33;;;;;;;0.67;0.47;;;;;;;10.60;100.00;101043.44;5030418;28;20456;-51
2022/10/27 03:38:01;;;;;;;0.97;0.97;;;;;;;10.46;100.00;101038.34;5029821;28;20452;-52
2022/10/27 03:40:28;;;;;;;0.90;0.90;;;;;;;10.35;100.00;101037.63;5027920;28;20474;-50
2022/10/27 03:42:57;;;;;;;0.70;0.70;;;;;;;10.32;100.00;101043.88;5024949;28;20451;-51
2022/10/27 03:45:25;;;;;;;0.60;0.50;;;;;;;10.31;100.00;101044.78;5030175;28;21004;-51
2022/10/27 03:48:03;;;;;;;5.37;0.93;;;;;;;10.08;100.00;101047.72;5029558;28;20597;-50
2022/10/27 03:50:30;;;;;;;1.10;1.00;;;;;;;10.08;100.00;101052.19;5029786;28;21361;-51
2022/10/27 03:52:57;;;;;;;1.47;1.37;;;;;;;9.89;100.00;101058.66;5029461;28;20490;-51
2022/10/27 03:55:23;;;;;;;0.90;0.60;;;;;;;10.07;100.00;101055.72;5029929;28;20459;-51
2022/10/27 03:57:50;;;;;;;0.50;0.40;;;;;;;10.35;100.00;101059.78;5029907;28;20451;-51
2022/10/27 04:00:17;;;;;;;0.73;0.47;;;;;;;10.19;100.00;101058.22;5028633;28;20455;-51
2022/10/27 04:02:43;;;;;;;0.83;0.60;;;;;;;10.03;100.00;101052.25;5029769;28;20525;-50
2022/10/27 04:05:10;;;;;;;11.73;1.90;;;;;;;10.25;100.00;101054.59;5029451;28;20530;-52
2022/10/27 04:07:36;;;;;;;2.10;1.17;;;;;;;10.09;100.00;101065.44;5029254;28;20897;-54
2022/10/27 04:10:03;;;;;;;0.93;0.80;;;;;;;10.09;100.00;101057.47;5029739;28;20460;-52
2022/10/27 04:12:29;;;;;;;1.00;0.83;;;;;;;10.19;100.00;101041.41;5028424;28;20980;-51
2022/10/27 04:14:56;;;;;;;0.70;0.60;;;;;;;10.17;100.00;101043.19;5029082;28;20557;-51
2022/10/27 04:17:22;;;;;;;1.33;1.03;;;;;;;10.16;100.00;101052.94;5029147;28;20872;-50
2022/10/27 04:19:49;;;;;;;0.60;0.53;;;;;;;10.13;100.00;101054.75;5029067;28;20455;-51
2022/10/27 04:22:15;;;;;;;0.60;0.60;;;;;;;10.13;100.00;101058.28;5028805;28;20518;-53
2022/10/27 04:24:42;;;;;;;1.00;0.90;;;;;;;10.22;100.00;101046.69;5029351;28;20526;-51
2022/10/27 04:27:08;;;;;;;1.20;1.07;;;;;;;10.67;100.00;101051.28;5016234;28;20490;-51
2022/10/27 04:29:35;;;;;;;1.07;0.97;;;;;;;10.26;100.00;101054.59;5029135;28;20456;-51
2022/10/27 04:32:01;;;;;;;0.97;0.90;;;;;;;10.18;100.00;101048.50;5025359;28;20510;-53
2022/10/27 04:34:27;;;;;;;0.70;0.70;;;;;;;10.13;100.00;101037.03;5021398;28;20483;-52
2022/10/27 04:36:54;;;;;;;1.00;0.60;;;;;;;10.14;100.00;101037.91;5028686;28;20918;-50
2022/10/27 04:39:21;;;;;;;0.60;0.50;;;;;;;10.18;100.00;101032.56;5028984;28;20456;-51
2022/10/27 04:41:48;;;;;;;0.40;0.40;;;;;;;10.18;100.00;101032.56;5021633;28;20451;-51
2022/10/27 04:44:14;;;;;;;0.50;0.40;;;;;;;10.16;100.00;101031.69;5029435;28;20881;-52
2022/10/27 04:46:40;;;;;;;1.00;0.90;;;;;;;10.21;100.00;101039.59;5028849;28;20455;-52
2022/10/27 04:49:07;;;;;;;0.60;0.40;;;;;;;10.31;100.00;101041.25;5029485;28;20522;-53
2022/10/27 04:51:33;;;;;;;0.37;0.27;;;;;;;10.35;100.00;101051.78;5029554;28;20506;-52
2022/10/27 04:54:00;;;;;;;0.57;0.40;;;;;;;10.33;100.00;101047.41;5029071;28;20999;-50
2022/10/27 04:56:27;;;;;;;0.70;0.57;;;;;;;10.31;100.00;101052.75;5028980;28;20451;-52
2022/10/27 04:58:54;;;;;;;0.60;0.60;;;;;;;10.48;100.00;101051.59;5028942;28;20872;-53
2022/10/27 05:01:21;;;;;;;1.10;1.00;;;;;;;10.78;100.00;101053.75;5028760;28;20452;-51
2022/10/27 05:03:48;;;;;;;0.90;0.70;;;;;;;10.65;100.00;101054.88;5028607;28;20529;-55
2022/10/27 05:06:14;;;;;;;2.90;1.30;;;;;;;10.70;100.00;101054.81;5028907;28;20881;-52
2022/10/27 05:08:41;;;;;;;1.20;1.00;;;;;;;10.70;100.00;101044.16;5029071;28;20495;-50
2022/10/27 05:11:07;;;;;;;3.90;1.30;;;;;;;10.65;100.00;101044.22;5027326;28;21007;-51
2022/10/27 05:13:39;;;;;;;0.83;0.83;;;;;;;10.58;100.00;101038.16;5028616;28;20518;-53
2022/10/27 05:16:06;;;;;;;1.97;1.23;;;;;;;10.45;100.00;101033.06;5028801;28;20886;-51
2022/10/27 05:18:32;;;;;;;1.00;0.73;;;;;;;10.47;100.00;101041.88;5028320;28;20972;-51
2022/10/27 05:20:59;;;;;;;0.53;0.53;;;;;;;10.68;100.00;101041.50;5027745;28;20486;-53
2022/10/27 05:23:25;;;;;;;1.30;1.20;;;;;;;10.86;100.00;101045.66;5029129;28;20988;-51
2022/10/27 05:25:53;;;;;;;2.00;1.67;;;;;;;11.12;100.00;101053.16;5020460;28;20456;-52
2022/10/27 05:28:20;;;;;;;0.60;0.53;;;;;;;11.12;100.00;101046.06;5023858;28;20495;-51
2022/10/27 05:30:47;;;;;;;1.20;1.03;;;;;;;11.47;100.00;101045.38;5028697;28;20948;-53
2022/10/27 05:33:14;;;;;;;0.80;0.80;;;;;;;11.50;100.00;101044.41;5018608;28;20507;-51
2022/10/27 05:35:40;;;;;;;2.30;2.10;;;;;;;11.50;100.00;101042.63;5032685;28;20515;-51
2022/10/27 05:38:07;;;;;;;4.30;1.63;;;;;;;11.48;100.00;101047.13;5032297;28;20451;-52
2022/10/27 05:40:33;;;;;;;0.97;0.90;;;;;;;11.41;100.00;101044.63;5029800;28;20460;-51
2022/10/27 05:43:01;;;;;;;0.73;0.73;;;;;;;11.50;100.00;101049.75;5028052;28;20832;-51
2022/10/27 05:45:28;;;;;;;1.40;1.27;;;;;;;11.46;100.00;101043.63;5032432;28;20464;-52
2022/10/27 05:47:59;;;;;;;3.63;1.70;;;;;;;11.78;100.00;101042.06;5030683;28;21078;-51
2022/10/27 05:50:27;;;;;;;1.57;1.47;;;;;;;11.86;100.00;101045.47;5032156;28;20451;-51
2022/10/27 05:52:54;;;;;;;6.40;2.20;;;;;;;11.60;100.00;101058.44;5032144;28;20451;-51
2022/10/27 05:55:22;;;;;;;9.83;1.90;;;;;;;11.48;100.00;101055.09;5032402;28;20458;-51
2022/10/27 05:57:59;;;;;;;1.70;1.13;;;;;;;11.36;100.00;101047.34;5031785;28;21006;-52
2022/10/27 06:00:29;;;;;;;1.60;1.50;;;;;;;11.41;100.00;101050.81;5031875;28;20805;-51
2022/10/27 06:02:57;;;;;;;0.63;0.63;;;;;;;11.45;100.00;101046.31;5031802;28;20871;-51
2022/10/27 06:05:25;;;;;;;1.17;0.90;;;;;;;11.53;100.00;101047.03;5030554;28;20510;-51
2022/10/27 06:07:51;;;;;;;1.93;1.83;;;;;;;11.40;100.00;101035.75;5031521;28;21077;-52
2022/10/27 06:10:18;;;;;;;5.47;1.40;;;;;;;11.34;100.00;101040.31;5030925;28;20985;-52
2022/10/27 06:12:45;;;;;;;2.00;1.90;;;;;;;11.39;100.00;101044.66;5005571;28;20463;-51
2022/10/27 06:15:11;;;;;;;2.43;2.03;;;;;;;11.41;100.00;101044.63;5031385;28;20525;-51
2022/10/27 06:17:38;;;;;;;2.17;2.07;;;;;;;11.33;100.00;101051.88;5031940;28;20513;-53
2022/10/27 06:20:05;;;;;;;2.57;1.80;;;;;;;11.37;100.00;101057.09;5031530;28;20502;-52
2022/10/27 06:22:31;;;;;;;5.70;1.90;;;;;;;11.43;100.00;101064.09;5031946;28;20489;-51
2022/10/27 06:24:57;;;;;;;2.43;2.27;;;;;;;11.62;100.00;101053.94;5029159;28;20476;-52
2022/10/27 06:27:24;;;;;;;5.70;2.17;;;;;;;11.60;100.00;101055.78;5018939;28;20495;-51
2022/10/27 06:29:50;;;;;;;2.00;1.77;;;;;;;11.62;100.00;101059.28;5031369;28;20452;-51
2022/10/27 06:32:17;;;;;;;2.60;2.40;;;;;;;11.67;100.00;101052.97;5025539;28;20484;-51
2022/10/27 06:34:43;;;;;;;1.73;1.63;;;;;;;11.70;100.00;101052.91;5025371;28;20475;-50
2022/10/27 06:37:09;;;;;;;3.10;1.73;;;;;;;11.60;100.00;101059.31;5031219;28;20451;-52
2022/10/27 06:39:37;;;;;;;2.00;1.80;;;;;;;11.69;100.00;101055.59;5031071;28;20816;-51
2022/10/27 06:42:03;;;;;;;2.00;1.90;;;;;;;11.84;100.00;101053.50;5023699;28;20871;-51
2022/10/27 06:44:29;;;;;;;20.33;2.67;;;;;;;11.85;100.00;101067.72;5030752;28;20480;-53
2022/10/27 06:46:56;;;;;;;2.70;1.70;;;;;;;11.78;100.00;101064.25;5031018;28;20456;-53
2022/10/27 06:49:22;;;;;;;6.80;1.87;;;;;;;11.89;100.00;101058.72;5031042;28;20564;-51
2022/10/27 06:51:48;;;;;;;5.30;1.80;;;;;;;12.01;100.00;101063.78;5030988;28;20499;-52
2022/10/27 06:54:15;;;;;;;3.97;3.10;;;;;;;12.22;100.00;101078.44;5030678;28;20554;-51
2022/10/27 06:56:41;;;;;;;1.80;1.13;;;;;;;12.04;100.00;101074.38;5031053;28;20452;-53
2022/10/27 06:59:07;;;;;;;3.23;1.07;;;;;;;11.97;100.00;101085.22;5030693;28;20946;-51
2022/10/27 07:01:34;;;;;;;0.97;0.90;;;;;;;11.92;100.00;101090.63;5030941;28;20455;-51
2022/10/27 07:04:00;;;;;;;7.30;2.90;;;;;;;11.98;100.00;101087.84;5030507;28;20476;-52
2022/10/27 07:06:27;;;;;;;3.17;2.87;;;;;;;12.03;100.00;101090.41;5030884;28;21013;-54
2022/10/27 07:08:54;;;;;;;5.53;2.73;;;;;;;11.89;100.00;101084.50;5030540;28;20841;-51
2022/10/27 07:11:20;;;;;;;1.53;1.43;;;;;;;12.35;100.00;101090.59;5032331;28;20838;-52
2022/10/27 07:13:47;;;;;;;1.87;1.57;;;;;;;12.38;100.00;101093.16;5030999;28;20887;-53
2022/10/27 07:16:15;;;;;;;1.93;1.83;;;;;;;12.63;100.00;101093.47;5030706;28;20880;-52
2022/10/27 07:18:42;;;;;;;3.27;1.93;;;;;;;12.24;100.00;101099.72;5030263;28;20448;-50
2022/10/27 07:21:08;;;;;;;2.00;1.13;;;;;;;12.21;100.00;101097.13;5030445;28;20448;-51
2022/10/27 07:23:34;;;;;;;2.13;1.93;;;;;;;12.48;100.00;101099.19;5029944;28;21005;-51
2022/10/27 07:26:01;;;;;;;2.10;1.90;;;;;;;12.85;100.00;101093.81;5021058;28;20456;-52
2022/10/27 07:28:27;;;;;;;1.90;1.80;;;;;;;12.87;100.00;101099.97;5026609;28;20492;-52
2022/10/27 07:30:54;;;;;;;11.30;1.60;;;;;;;12.52;100.00;101095.50;5030426;28;20522;-54
2022/10/27 07:33:21;;;;;;;2.00;1.90;;;;;;;12.43;100.00;101093.94;5018484;28;20506;-53
2022/10/27 07:35:49;;;;;;;1.80;1.17;;;;;;;12.98;100.00;101095.25;5030098;28;20513;-55
2022/10/27 07:38:17;;;;;;;1.57;1.47;;;;;;;12.62;100.00;101097.06;5029955;28;20455;-52
2022/10/27 07:40:43;;;;;;;3.50;1.43;;;;;;;12.37;100.00;101093.22;5026125;28;20452;-51
2022/10/27 07:43:11;;;;;;;1.00;0.90;;;;;;;12.39;100.00;101100.25;5027478;28;20538;-53
2022/10/27 07:45:40;;;;;;;9.10;1.53;;;;;;;12.92;100.00;101089.22;5029969;28;20463;-53
2022/10/27 07:48:11;;;;;;;3.57;2.83;;;;;;;12.73;100.00;101091.44;5029809;28;20495;-51
2022/10/27 07:50:38;;;;;;;2.43;1.80;;;;;;;12.77;100.00;101086.94;5029500;28;20452;-53
2022/10/27 07:53:04;;;;;;;3.83;3.40;;;;;;;12.63;100.00;101093.47;5030076;28;20929;-51
2022/10/27 07:55:34;;;;;;;14.83;2.40;;;;;;;12.55;100.00;101095.44;5029305;28;20451;-55
2022/10/27 07:58:19;;;;;;;5.83;1.80;;;;;;;12.63;100.00;101104.16;5029686;28;20881;-56
2022/10/27 08:00:47;;;;;;;1.83;1.73;;;;;;;12.52;100.00;101097.31;5029507;28;20447;-55
2022/10/27 08:03:17;;;;;;;5.10;2.23;;;;;;;12.93;100.00;101104.31;5029518;28;20472;-55
2022/10/27 08:05:44;;;;;;;2.53;2.30;;;;;;;12.83;100.00;101105.44;5029800;28;20447;-55
2022/10/27 08:08:10;;;;;;;4.83;2.47;;;;;;;12.92;100.00;101110.56;5029518;28;20526;-55
2022/10/27 08:10:38;;;;;;;2.80;2.57;;;;;;;12.90;100.00;101107.94;5029429;28;20474;-55
2022/10/27 08:13:06;;;;;;;2.73;2.07;;;;;;;12.87;100.00;101105.31;5029237;28;20459;-56
2022/10/27 08:15:38;;;;;;;8.00;1.97;;;;;;;12.97;100.00;101111.31;5029138;28;20455;-55
2022/10/27 08:18:06;;;;;;;2.40;2.30;;;;;;;12.88;100.00;101108.84;5029890;28;20505;-56
2022/10/27 08:20:36;;;;;;;1.90;1.80;;;;;;;12.96;100.00;101109.56;5029147;28;20870;-55
2022/10/27 08:23:05;;;;;;;2.40;2.30;;;;;;;12.99;100.00;101106.81;5029384;28;20444;-55
2022/10/27 08:25:32;;;;;;;4.33;2.77;;;;;;;13.49;100.00;101109.97;5023861;28;20457;-56
2022/10/27 08:27:59;;;;;;;8.13;3.27;;;;;;;13.20;100.00;101105.41;5022073;28;20495;-56
2022/10/27 08:30:27;;;;;;;2.57;2.27;;;;;;;13.20;100.00;101106.28;5029190;28;20452;-56
2022/10/27 08:33:01;;;;;;;5.30;4.07;;;;;;;13.04;100.00;101102.25;5017772;28;20489;-55
2022/10/27 08:35:30;;;;;;;2.47;2.13;;;;;;;13.29;100.00;101105.16;5002860;28;20463;-55
2022/10/27 08:38:00;;;;;;;11.37;1.97;;;;;;;13.29;100.00;101099.81;5029018;28;20530;-54
2022/10/27 08:40:35;;;;;;;2.17;2.00;;;;;;;13.31;100.00;101108.69;5027118;28;20456;-56
2022/10/27 08:43:21;;;;;;;2.67;2.30;;;;;;;13.15;100.00;101110.81;5024510;28;20936;-56
2022/10/27 08:45:57;;;;;;;3.77;2.83;;;;;;;13.24;100.00;101121.31;5027856;28;20523;-56
2022/10/27 08:48:26;;;;;;;6.40;3.27;;;;;;;13.43;100.00;101115.47;5028622;28;21089;-56
2022/10/27 08:50:53;;;;;;;5.53;2.90;;;;;;;13.54;100.00;101119.59;5028510;28;20455;-55
2022/10/27 08:53:34;;;;;;;3.27;3.03;;;;;;;13.36;100.00;101109.44;5028983;28;20476;-56
2022/10/27 08:56:08;;;;;;;3.00;1.83;;;;;;;13.49;100.00;101115.31;5029021;28;20514;-55
2022/10/27 08:58:39;;;;;;;2.80;1.97;;;;;;;13.40;100.00;101116.44;5029344;28;20494;-55
2022/10/27 09:01:19;;;;;;;5.43;2.97;;;;;;;13.45;100.00;101108.31;5028999;28;20456;-56
2022/10/27 09:04:09;;;;;;;11.53;3.20;;;;;;;13.50;100.00;101101.03;5027712;28;20930;-55
2022/10/27 09:07:00;;;;;;;3.90;3.30;;;;;;;13.46;100.00;101099.38;5029733;28;20447;-55
2022/10/27 09:09:39;;;;;;;3.23;2.77;;;;;;;13.66;100.00;101096.16;5033335;28;20549;-56
2022/10/27 09:12:14;;;;;;;3.10;2.83;;;;;;;13.67;100.00;101104.13;5032600;28;20443;-55
2022/10/27 09:15:08;;;;;;;6.40;5.23;;;;;;;13.69;100.00;101102.28;5031984;28;20479;-55
2022/10/27 09:17:57;;;;;;;4.20;3.37;;;;;;;13.49;100.00;101107.31;5033262;28;20513;-55
2022/10/27 09:20:36;;;;;;;14.33;3.63;;;;;;;13.52;100.00;101107.22;5032576;28;20448;-54
2022/10/27 09:23:05;;;;;;;3.10;2.80;;;;;;;13.62;100.00;101108.72;5032739;28;20443;-56
2022/10/27 09:25:37;;;;;;;5.27;3.70;;;;;;;13.83;100.00;101107.22;5026428;28;20537;-55
2022/10/27 09:28:05;;;;;;;3.60;3.17;;;;;;;13.80;100.00;101107.31;5025544;28;20983;-55
2022/10/27 09:30:34;;;;;;;8.97;4.23;;;;;;;13.74;100.00;101105.72;5032406;28;20489;-55
2022/10/27 09:33:00;;;;;;;3.30;3.10;;;;;;;13.97;100.00;101102.34;5021488;28;20510;-55
2022/10/27 09:35:27;;;;;;;5.17;3.73;;;;;;;13.63;100.00;101092.66;5032566;28;20882;-56
2022/10/27 09:37:56;;;;;;;9.00;4.20;;;;;;;13.72;100.00;101087.97;5032600;28;20487;-55
2022/10/27 09:40:24;;;;;;;14.90;3.20;;;;;;;13.84;100.00;101085.81;5030928;28;20451;-55
2022/10/27 09:42:54;;;;;;;3.70;3.50;;;;;;;13.78;100.00;101080.63;5027966;28;20451;-56
2022/10/27 09:45:23;;;;;;;12.50;3.70;;;;;;;13.86;100.00;101080.44;5032309;28;20534;-55
2022/10/27 09:47:53;;;;;;;14.17;2.70;;;;;;;13.77;100.00;101092.25;5031881;28;21018;-55
2022/10/27 09:50:27;;;;;;;2.80;2.60;;;;;;;13.99;100.00;101086.28;5031989;28;20424;-56
2022/10/27 09:52:53;;;;;;;10.03;2.53;;;;;;;14.20;100.00;101093.66;5031971;28;20885;-56
2022/10/27 09:55:20;;;;;;;6.70;2.93;;;;;;;14.33;100.00;101089.66;5032094;28;20478;-54
2022/10/27 09:57:48;;;;;;;9.33;3.00;;;;;;;14.45;100.00;101089.31;5031739;28;20475;-56
2022/10/27 10:00:15;;;;;;;8.27;3.97;;;;;;;14.27;100.00;101089.88;5032038;28;20991;-56
2022/10/27 10:02:57;;;;;;;4.67;4.10;;;;;;;14.43;100.00;101091.16;5031954;28;20459;-55
2022/10/27 10:05:44;;;;;;;3.93;3.53;;;;;;;14.35;100.00;101089.63;5032143;28;20551;-55
2022/10/27 10:08:25;;;;;;;4.37;3.50;;;;;;;14.46;100.00;101079.50;5010532;28;20566;-56
2022/10/27 10:11:24;;;;;;;7.50;5.20;;;;;;;14.65;100.00;101075.28;5031044;28;20504;-54
2022/10/27 10:13:59;;;;;;;6.93;4.33;;;;;;;14.44;100.00;101074.19;4985180;28;20467;-55
2022/10/27 10:16:29;;;;;;;18.33;6.17;;;;;;;14.37;100.00;101074.41;5031621;28;20455;-55
2022/10/27 10:19:02;;;;;;;6.27;3.80;;;;;;;14.44;100.00;101081.34;5031062;28;20457;-55
2022/10/27 10:21:53;;;;;;;4.90;4.30;;;;;;;14.81;100.00;101081.03;5031946;28;20451;-56
2022/10/27 10:24:23;;;;;;;6.13;5.27;;;;;;;14.73;100.00;101077.72;5031798;28;20459;-56
2022/10/27 10:26:54;;;;;;;8.77;5.23;;;;;;;14.88;100.00;101081.69;5018236;28;20448;-56
2022/10/27 10:29:27;;;;;;;5.20;4.67;;;;;;;14.98;100.00;101075.97;5030638;28;20564;-56
2022/10/27 10:32:08;;;;;;;13.80;7.10;;;;;;;15.20;100.00;101065.38;5029222;28;20448;-54
2022/10/27 10:34:35;;;;;;;5.40;4.90;;;;;;;15.22;100.00;101068.03;5025040;28;20513;-54
2022/10/27 10:37:02;;;;;;;8.17;6.40;;;;;;;15.17;100.00;101070.84;5032021;28;20456;-54
2022/10/27 10:39:34;;;;;;;6.77;6.10;;;;;;;15.40;100.00;101072.72;5031357;28;20414;-56
2022/10/27 10:42:17;;;;;;;7.37;5.73;;;;;;;15.37;100.00;101076.41;5025476;28;20510;-56
2022/10/27 10:44:44;;;;;;;4.93;4.53;;;;;;;15.37;100.00;101072.84;5032204;28;20467;-55
2022/10/27 10:47:31;;;;;;;5.73;4.33;;;;;;;15.43;100.00;101077.09;5032299;28;20476;-56
2022/10/27 10:50:00;;;;;;;4.33;3.90;;;;;;;15.50;100.00;101071.47;5006239;28;20533;-55
2022/10/27 10:52:35;;;;;;;8.23;6.20;;;;;;;15.43;100.00;101066.38;5032266;28;20451;-56
2022/10/27 10:55:07;;;;;;;5.00;4.70;;;;;;;15.65;100.00;101065.59;5032285;28;20509;-56
2022/10/27 10:57:37;;;;;;;18.97;5.07;;;;;;;15.80;100.00;101058.78;5031606;28;20488;-56
2022/10/27 11:00:05;;;;;;;6.77;6.10;;;;;;;15.77;100.00;101052.66;5031348;28;20451;-56
2022/10/27 11:02:33;;;;;;;13.93;6.97;;;;;;;15.79;100.00;101051.66;5030842;28;20895;-56
2022/10/27 11:05:20;;;;;;;6.33;5.40;;;;;;;15.90;100.00;101053.94;5030869;28;20475;-55
2022/10/27 11:07:48;;;;;;;8.23;5.80;;;;;;;15.55;100.00;101048.06;5004742;28;20532;-55
2022/10/27 11:10:39;;;;;;;6.70;6.07;;;;;;;15.51;100.00;101045.56;5030589;28;20495;-56
2022/10/27 11:13:18;;;;;;;10.40;5.17;;;;;;;15.51;100.00;101046.44;5021368;28;20451;-55
2022/10/27 11:15:58;;;;;;;4.90;4.47;;;;;;;15.68;100.00;101038.66;5012473;28;20460;-55
2022/10/27 11:18:28;;;;;;;8.03;5.57;;;;;;;15.77;100.00;101041.94;5018919;28;20447;-56
2022/10/27 11:21:04;;;;;;;12.60;7.20;;;;;;;16.08;100.00;101033.56;5030459;28;20422;-56
2022/10/27 11:23:40;;;;;;;13.70;6.70;;;;;;;15.79;100.00;101030.22;5030452;28;20471;-55
2022/10/27 11:26:08;;;;;;;6.53;5.90;;;;;;;15.83;100.00;101010.38;5020154;28;20495;-56
2022/10/27 11:28:49;;;;;;;7.00;6.30;;;;;;;16.36;100.00;101011.88;5027614;28;20488;-55
2022/10/27 11:31:22;;;;;;;6.50;5.87;;;;;;;16.47;100.00;101004.28;5029326;28;20498;-57